Time,TemperatureF,DewpointF,PressureIn,WindDirection,WindDirectionDegrees,WindSpeedMPH,WindSpeedGustMPH,Humidity,HourlyPrecipIn,Conditions,Clouds,dailyrainin,SoftwareType,DateUTC
2013-08-17 00:13:00,63.0,57.0,30.10,SSW,202,0.0,0.0,82,0.00,,,0.00,,2013-08-17 05:13:00,
2013-08-17 00:22:00,62.0,57.0,30.11,SSW,202,0.0,0.0,83,0.00,,,0.00,,2013-08-17 05:22:00,
2013-08-17 00:42:00,62.0,57.0,30.11,SSW,202,0.0,0.0,83,0.00,,,0.00,,2013-08-17 05:42:00,
2013-08-17 00:52:00,62.0,57.0,30.11,SSW,202,0.0,0.0,84,0.00,,,0.00,,2013-08-17 05:52:00,
2013-08-17 01:12:00,62.0,57.0,30.11,SSW,202,0.0,0.0,84,0.00,,,0.00,,2013-08-17 06:12:00,
2013-08-17 01:21:00,62.0,57.0,30.11,SSW,202,0.0,0.0,84,0.00,,,0.00,,2013-08-17 06:21:00,
2013-08-17 01:52:00,62.0,57.0,30.11,SSW,202,0.0,0.0,83,0.00,,,0.00,,2013-08-17 06:52:00,
2013-08-17 02:11:00,62.0,57.0,30.11,SSW,202,0.0,0.0,83,0.00,,,0.00,,2013-08-17 07:11:00,
2013-08-17 02:22:00,61.0,56.0,30.10,SSW,202,0.0,0.0,83,0.00,,,0.00,,2013-08-17 07:22:00,
2013-08-17 02:52:00,60.0,55.0,30.10,SSW,202,0.0,0.0,84,0.00,,,0.00,,2013-08-17 07:52:00,
2013-08-17 03:11:00,60.0,55.0,30.10,SSW,202,0.0,0.0,85,0.00,,,0.00,,2013-08-17 08:11:00,
2013-08-17 03:21:00,59.0,54.0,30.10,SSW,202,0.0,0.0,85,0.00,,,0.00,,2013-08-17 08:21:00,
2013-08-17 03:52:00,59.0,55.0,30.11,SSW,202,0.0,0.0,87,0.00,,,0.00,,2013-08-17 08:52:00,
2013-08-17 04:11:00,59.0,55.0,30.11,WNW,298,0.0,1.0,87,0.00,,,0.00,,2013-08-17 09:11:00,
2013-08-17 04:21:00,58.0,54.0,30.11,WNW,298,0.0,3.0,87,0.00,,,0.00,,2013-08-17 09:21:00,
2013-08-17 04:43:00,58.0,54.0,30.11,WNW,298,0.0,0.0,87,0.00,,,0.00,,2013-08-17 09:43:00,
2013-08-17 04:53:00,59.0,55.0,30.11,WNW,298,0.0,0.0,87,0.00,,,0.00,,2013-08-17 09:53:00,
2013-08-17 05:12:00,59.0,55.0,30.11,WNW,298,0.0,0.0,87,0.00,,,0.00,,2013-08-17 10:12:00,
2013-08-17 05:23:00,59.0,55.0,30.12,WNW,298,0.0,0.0,87,0.00,,,0.00,,2013-08-17 10:23:00,
2013-08-17 05:53:00,60.0,56.0,30.12,WNW,298,0.0,1.0,86,0.00,,,0.00,,2013-08-17 10:53:00,
2013-08-17 06:11:00,60.0,56.0,30.12,WNW,298,0.0,0.0,86,0.00,,,0.00,,2013-08-17 11:11:00,
2013-08-17 06:22:00,60.0,56.0,30.12,WNW,298,0.0,1.0,86,0.00,,,0.00,,2013-08-17 11:22:00,
2013-08-17 06:42:00,60.0,56.0,30.12,WNW,298,0.0,0.0,86,0.00,,,0.00,,2013-08-17 11:42:00,
2013-08-17 06:52:00,59.0,55.0,30.13,WNW,298,0.0,1.0,86,0.00,,,0.00,,2013-08-17 11:52:00,
2013-08-17 07:11:00,59.0,55.0,30.13,West,259,0.0,0.0,86,0.00,,,0.00,,2013-08-17 12:11:00,
2013-08-17 07:21:00,60.0,55.0,30.14,West,259,0.0,1.0,85,0.00,,,0.00,,2013-08-17 12:21:00,
2013-08-17 07:42:00,60.0,55.0,30.14,West,260,0.0,3.0,85,0.00,,,0.00,,2013-08-17 12:42:00,
2013-08-17 07:52:00,60.0,55.0,30.15,West,261,0.0,1.0,84,0.00,,,0.00,,2013-08-17 12:52:00,
2013-08-17 08:11:00,61.0,56.0,30.15,West,278,0.0,3.0,84,0.00,,,0.00,,2013-08-17 13:11:00,
2013-08-17 08:21:00,62.0,56.0,30.15,NNE,27,2.0,5.0,81,0.00,,,0.00,,2013-08-17 13:21:00,
2013-08-17 08:52:00,63.0,56.0,30.15,NE,41,0.0,6.0,78,0.00,,,0.00,,2013-08-17 13:52:00,
2013-08-17 09:11:00,63.0,56.0,30.15,NNE,15,3.0,6.0,77,0.00,,,0.00,,2013-08-17 14:11:00,
2013-08-17 09:21:00,63.0,56.0,30.15,North,0,5.0,8.0,78,0.00,,,0.00,,2013-08-17 14:21:00,
2013-08-17 09:42:00,64.0,57.0,30.15,NNE,32,3.0,8.0,78,0.00,,,0.00,,2013-08-17 14:42:00,
2013-08-17 09:52:00,65.0,58.0,30.15,NE,40,1.0,9.0,77,0.00,,,0.00,,2013-08-17 14:52:00,
2013-08-17 10:11:00,66.0,58.0,30.15,NNW,330,1.0,5.0,76,0.00,,,0.00,,2013-08-17 15:11:00,
2013-08-17 10:22:00,67.0,59.0,30.16,NE,38,0.0,6.0,75,0.00,,,0.00,,2013-08-17 15:22:00,
2013-08-17 10:43:00,67.0,58.0,30.16,NE,42,3.0,6.0,72,0.00,,,0.00,,2013-08-17 15:43:00,
2013-08-17 10:53:00,69.0,58.0,30.16,NE,51,5.0,9.0,69,0.00,,,0.00,,2013-08-17 15:53:00,
2013-08-17 11:12:00,70.0,58.0,30.15,NNE,33,7.0,9.0,66,0.00,,,0.00,,2013-08-17 16:12:00,
2013-08-17 11:23:00,72.0,59.0,30.15,NNE,33,2.0,15.0,63,0.00,,,0.00,,2013-08-17 16:23:00,
2013-08-17 11:53:00,74.0,58.0,30.14,NE,52,3.0,14.0,58,0.00,,,0.00,,2013-08-17 16:53:00,
2013-08-17 12:12:00,74.0,58.0,30.14,South,174,3.0,14.0,57,0.00,,,0.00,,2013-08-17 17:12:00,
2013-08-17 12:23:00,76.0,58.0,30.14,SSE,161,1.0,9.0,54,0.00,,,0.00,,2013-08-17 17:23:00,
2013-08-17 12:52:00,77.0,57.0,30.13,SSE,167,1.0,10.0,51,0.00,,,0.00,,2013-08-17 17:52:00,
2013-08-17 13:12:00,77.0,57.0,30.13,ENE,57,5.0,8.0,51,0.00,,,0.00,,2013-08-17 18:12:00,
2013-08-17 13:21:00,78.0,57.0,30.11,West,280,0.0,10.0,49,0.00,,,0.00,,2013-08-17 18:21:00,
2013-08-17 13:42:00,78.0,57.0,30.11,NNE,31,1.0,8.0,48,0.00,,,0.00,,2013-08-17 18:42:00,
2013-08-17 13:52:00,77.0,55.0,30.11,NNE,17,3.0,8.0,46,0.00,,,0.00,,2013-08-17 18:52:00,
2013-08-17 14:11:00,77.0,55.0,30.10,NE,54,6.0,9.0,47,0.00,,,0.00,,2013-08-17 19:11:00,
2013-08-17 14:21:00,78.0,56.0,30.10,North,9,3.0,8.0,46,0.00,,,0.00,,2013-08-17 19:21:00,
2013-08-17 14:52:00,79.0,56.0,30.09,NE,36,6.0,14.0,45,0.00,,,0.00,,2013-08-17 19:52:00,
2013-08-17 15:11:00,79.0,55.0,30.08,South,174,1.0,8.0,44,0.00,,,0.00,,2013-08-17 20:11:00,
2013-08-17 15:21:00,79.0,55.0,30.09,SSE,151,4.0,9.0,44,0.00,,,0.00,,2013-08-17 20:21:00,
2013-08-17 15:52:00,79.0,56.0,30.08,SSW,195,1.0,8.0,45,0.00,,,0.00,,2013-08-17 20:52:00,
2013-08-17 16:11:00,80.0,55.0,30.08,North,5,3.0,6.0,43,0.00,,,0.00,,2013-08-17 21:11:00,
2013-08-17 16:21:00,79.0,55.0,30.08,South,170,3.0,16.0,43,0.00,,,0.00,,2013-08-17 21:21:00,
2013-08-17 16:54:00,80.0,53.0,30.08,NE,44,5.0,10.0,40,0.00,,,0.00,,2013-08-17 21:54:00,
2013-08-17 17:13:00,80.0,55.0,30.08,ENE,65,2.0,5.0,42,0.00,,,0.00,,2013-08-17 22:13:00,
2013-08-17 17:22:00,79.0,54.0,30.08,SSW,213,1.0,10.0,42,0.00,,,0.00,,2013-08-17 22:22:00,
2013-08-17 17:52:00,79.0,56.0,30.07,NNW,335,1.0,9.0,45,0.00,,,0.00,,2013-08-17 22:52:00,
2013-08-17 18:22:00,78.0,55.0,30.07,NNE,15,4.0,10.0,45,0.00,,,0.00,,2013-08-17 23:22:00,
2013-08-17 18:52:00,78.0,57.0,30.07,North,355,0.0,9.0,48,0.00,,,0.00,,2013-08-17 23:52:00,
2013-08-17 19:21:00,77.0,57.0,30.07,NE,55,0.0,3.0,51,0.00,,,0.00,,2013-08-18 00:21:00,
2013-08-17 19:42:00,76.0,57.0,30.07,NE,50,1.0,8.0,52,0.00,,,0.00,,2013-08-18 00:42:00,
2013-08-17 19:52:00,75.0,58.0,30.07,NE,49,0.0,5.0,55,0.00,,,0.00,,2013-08-18 00:52:00,
2013-08-17 20:11:00,74.0,57.0,30.07,NE,49,0.0,0.0,56,0.00,,,0.00,,2013-08-18 01:11:00,
2013-08-17 20:21:00,73.0,58.0,30.07,NE,49,0.0,1.0,59,0.00,,,0.00,,2013-08-18 01:21:00,
2013-08-17 20:42:00,72.0,57.0,30.07,NE,49,0.0,1.0,60,0.00,,,0.00,,2013-08-18 01:42:00,
2013-08-17 20:52:00,71.0,58.0,30.07,NE,49,0.0,0.0,64,0.00,,,0.00,,2013-08-18 01:52:00,
2013-08-17 21:11:00,70.0,58.0,30.08,NE,49,0.0,1.0,66,0.00,,,0.00,,2013-08-18 02:11:00,
2013-08-17 21:21:00,69.0,58.0,30.08,NE,49,0.0,0.0,68,0.00,,,0.00,,2013-08-18 02:21:00,
2013-08-17 21:42:00,69.0,58.0,30.08,NE,49,0.0,0.0,69,0.00,,,0.00,,2013-08-18 02:42:00,
2013-08-17 21:52:00,67.0,58.0,30.09,NE,49,0.0,0.0,72,0.00,,,0.00,,2013-08-18 02:52:00,
2013-08-17 22:21:00,67.0,58.0,30.08,NE,49,1.0,3.0,74,0.00,,,0.00,,2013-08-18 03:21:00,
2013-08-17 22:53:00,67.0,58.0,30.08,NNE,31,2.0,6.0,73,0.00,,,0.00,,2013-08-18 03:53:00,
2013-08-17 23:02:00,-999.0,-99.9,30.08,NNE,32,0.0,5.0,-999,0.00,,,0.00,,2013-08-18 04:02:00,
2013-08-17 23:23:00,67.0,58.0,30.08,NNE,30,1.0,3.0,74,0.00,,,0.00,,2013-08-18 04:23:00,
2013-08-17 23:53:00,66.0,58.0,30.07,NNE,23,0.0,5.0,76,0.00,,,0.00,,2013-08-18 04:53:00,